createdAt,value
2018-04-27T00:00:09.517Z,101270.18
2018-04-27T00:02:37.101Z,101274.74
2018-04-27T00:05:04.914Z,101261.00
2018-04-27T00:07:32.471Z,101250.96
2018-04-27T00:10:00.031Z,101252.80
2018-04-27T00:12:27.590Z,101257.33
2018-04-27T00:14:55.254Z,101253.17
2018-04-27T00:17:22.828Z,101251.46
2018-04-27T00:19:50.785Z,101252.41
2018-04-27T00:22:18.314Z,101259.72
2018-04-27T00:24:46.575Z,101260.70
2018-04-27T00:27:14.106Z,101259.59
2018-04-27T00:29:41.662Z,101258.26
2018-04-27T00:32:09.243Z,101256.70
2018-04-27T00:34:36.807Z,101253.32
2018-04-27T00:37:04.420Z,101251.65
2018-04-27T00:39:32.025Z,101248.00
2018-04-27T00:41:59.605Z,101252.27
2018-04-27T00:44:27.141Z,101255.16
2018-04-27T00:46:54.731Z,101248.38
2018-04-27T00:49:22.530Z,101256.14
2018-04-27T00:51:50.097Z,101260.23
2018-04-27T00:54:17.653Z,101251.56
2018-04-27T00:56:45.207Z,101253.69
2018-04-27T00:59:12.764Z,101249.05
2018-04-27T01:01:40.630Z,101249.28
2018-04-27T01:04:08.167Z,101248.04
2018-04-27T01:06:35.726Z,101249.71
2018-04-27T01:09:03.489Z,101245.42
2018-04-27T01:11:31.011Z,101245.77
2018-04-27T01:13:58.627Z,101246.05
2018-04-27T01:16:26.139Z,101241.59
2018-04-27T01:18:53.736Z,101244.89
2018-04-27T01:21:21.261Z,101240.73
2018-04-27T01:23:48.809Z,101240.81
2018-04-27T01:26:16.393Z,101241.98
2018-04-27T01:28:43.926Z,101246.81
2018-04-27T01:31:11.491Z,101234.87
2018-04-27T01:33:39.115Z,101236.74
2018-04-27T01:36:06.634Z,101243.72
2018-04-27T01:38:34.209Z,101252.80
2018-04-27T01:41:01.849Z,101252.39
2018-04-27T01:43:29.384Z,101249.45
2018-04-27T01:45:56.923Z,101251.84
2018-04-27T01:48:24.481Z,101255.27
2018-04-27T01:50:52.038Z,101259.08
2018-04-27T01:53:19.642Z,101256.10
2018-04-27T01:55:47.578Z,101255.30
2018-04-27T01:58:15.222Z,101258.73
2018-04-27T02:00:42.942Z,101251.03
2018-04-27T02:03:10.511Z,101255.55
2018-04-27T02:05:38.045Z,101248.56
2018-04-27T02:08:05.574Z,101257.25
2018-04-27T02:10:33.160Z,101257.13
2018-04-27T02:13:00.720Z,101252.50
2018-04-27T02:15:28.277Z,101252.53
2018-04-27T02:17:55.873Z,101249.77
2018-04-27T02:20:23.429Z,101247.93
2018-04-27T02:22:50.950Z,101252.69
2018-04-27T02:25:18.504Z,101260.47
2018-04-27T02:27:46.044Z,101249.72
2018-04-27T02:30:13.623Z,101253.22
2018-04-27T02:32:41.184Z,101249.34
2018-04-27T02:35:08.691Z,101257.52
2018-04-27T02:37:36.246Z,101266.41
2018-04-27T02:40:03.859Z,101254.23
2018-04-27T02:42:31.397Z,101263.96
2018-04-27T02:44:58.959Z,101262.77
2018-04-27T02:47:26.517Z,101252.78
2018-04-27T02:49:54.082Z,101250.13
2018-04-27T02:52:21.598Z,101250.36
2018-04-27T02:54:49.219Z,101252.95
2018-04-27T02:57:16.744Z,101250.92
2018-04-27T02:59:44.253Z,101257.18
2018-04-27T03:02:11.779Z,101254.31
2018-04-27T03:04:39.339Z,101253.47
2018-04-27T03:07:06.935Z,101249.91
2018-04-27T03:09:34.485Z,101251.20
2018-04-27T03:12:02.371Z,101249.88
2018-04-27T03:14:29.918Z,101255.19
2018-04-27T03:16:57.481Z,101254.70
2018-04-27T03:19:25.008Z,101247.47
2018-04-27T03:21:52.534Z,101249.77
2018-04-27T03:24:20.062Z,101247.19
2018-04-27T03:26:47.583Z,101247.78
2018-04-27T03:29:15.213Z,101244.35
2018-04-27T03:31:42.747Z,101245.50
2018-04-27T03:34:10.267Z,101247.39
2018-04-27T03:36:38.088Z,101244.91
2018-04-27T03:39:05.896Z,101242.71
2018-04-27T03:41:33.402Z,101246.87
2018-04-27T03:44:00.963Z,101249.81
2018-04-27T03:46:28.502Z,101253.09
2018-04-27T03:48:56.045Z,101249.63
2018-04-27T03:51:23.579Z,101250.27
2018-04-27T03:53:52.150Z,101254.10
2018-04-27T03:56:19.670Z,101252.29
2018-04-27T03:58:47.188Z,101247.53
2018-04-27T04:01:26.897Z,101249.88
2018-04-27T04:06:57.403Z,101253.30
2018-04-27T04:09:24.910Z,101259.86
2018-04-27T04:11:52.425Z,101255.95
2018-04-27T04:14:20.024Z,101259.55
2018-04-27T04:16:47.559Z,101265.52
2018-04-27T04:19:15.095Z,101266.02
2018-04-27T04:21:42.638Z,101270.17
2018-04-27T04:24:10.168Z,101275.73
2018-04-27T04:26:37.676Z,101277.23
2018-04-27T04:29:05.212Z,101275.98
2018-04-27T04:31:32.744Z,101273.56
2018-04-27T04:34:00.262Z,101272.52
2018-04-27T04:36:27.821Z,101278.56
2018-04-27T04:38:55.655Z,101279.55
2018-04-27T04:41:23.155Z,101275.73
2018-04-27T04:43:50.707Z,101274.82
2018-04-27T04:46:18.207Z,101278.28
2018-04-27T04:48:45.824Z,101279.89
2018-04-27T04:51:13.373Z,101279.59
2018-04-27T04:53:41.205Z,101278.47
2018-04-27T04:56:08.718Z,101284.91
2018-04-27T04:58:36.253Z,101291.86
2018-04-27T05:01:03.783Z,101292.84
2018-04-27T05:03:31.307Z,101287.63
2018-04-27T05:05:58.881Z,101292.00
2018-04-27T05:08:26.410Z,101294.86
2018-04-27T05:10:54.175Z,101295.98
2018-04-27T05:13:21.690Z,101294.64
2018-04-27T05:15:49.198Z,101295.38
2018-04-27T05:21:29.602Z,101301.64
2018-04-27T05:23:57.171Z,101309.23
2018-04-27T05:26:24.697Z,101308.33
2018-04-27T05:28:52.241Z,101304.69
2018-04-27T05:31:23.702Z,101307.73
2018-04-27T05:33:51.252Z,101308.61
2018-04-27T05:36:18.755Z,101307.27
2018-04-27T05:38:46.349Z,101304.82
2018-04-27T05:41:15.137Z,101300.13
2018-04-27T05:43:42.672Z,101291.17
2018-04-27T05:46:10.324Z,101293.97
2018-04-27T05:48:37.902Z,101294.20
2018-04-27T05:51:05.454Z,101299.64
2018-04-27T05:53:33.032Z,101301.23
2018-04-27T05:56:00.613Z,101298.91
2018-04-27T05:58:28.157Z,101297.07
2018-04-27T06:00:55.947Z,101298.48
2018-04-27T06:03:23.455Z,101298.73
2018-04-27T06:05:50.973Z,101292.51
2018-04-27T06:08:18.529Z,101288.22
2018-04-27T06:10:46.088Z,101295.17
2018-04-27T06:13:13.733Z,101294.19
2018-04-27T06:15:41.599Z,101290.38
2018-04-27T06:18:09.149Z,101288.73
2018-04-27T06:20:36.680Z,101288.33
2018-04-27T06:23:04.235Z,101289.47
2018-04-27T06:25:32.170Z,101286.06
2018-04-27T06:27:59.816Z,101285.83
2018-04-27T06:30:27.394Z,101293.64
2018-04-27T06:32:55.706Z,101287.32
2018-04-27T06:35:23.232Z,101288.72
2018-04-27T06:37:50.782Z,101288.35
2018-04-27T06:40:18.947Z,101281.02
2018-04-27T06:42:48.151Z,101281.34
2018-04-27T06:45:15.761Z,101276.84
2018-04-27T06:47:43.388Z,101278.75
2018-04-27T06:50:12.845Z,101270.45
2018-04-27T06:52:40.454Z,101274.06
2018-04-27T06:55:08.007Z,101269.64
2018-04-27T06:57:35.837Z,101267.28
2018-04-27T07:00:05.570Z,101268.18
2018-04-27T07:02:35.493Z,101275.91
2018-04-27T07:05:03.212Z,101276.51
2018-04-27T07:07:40.973Z,101265.80
2018-04-27T07:10:08.637Z,101266.52
2018-04-27T07:12:36.222Z,101263.64
2018-04-27T07:15:03.947Z,101262.88
2018-04-27T07:17:31.510Z,101267.63
2018-04-27T07:20:00.191Z,101272.21
2018-04-27T07:22:28.498Z,101272.16
2018-04-27T07:24:56.621Z,101274.77
2018-04-27T07:27:24.223Z,101267.19
2018-04-27T07:29:52.185Z,101266.63
2018-04-27T07:32:20.009Z,101264.88
2018-04-27T07:34:47.929Z,101259.84
2018-04-27T07:37:15.624Z,101262.98
2018-04-27T07:39:43.221Z,101259.31
2018-04-27T07:42:10.756Z,101269.20
2018-04-27T07:44:38.347Z,101256.30
2018-04-27T07:47:06.997Z,101262.41
2018-04-27T07:49:34.612Z,101248.33
2018-04-27T07:52:02.188Z,101250.54
2018-04-27T07:54:29.739Z,101253.81
2018-04-27T07:56:57.286Z,101251.36
2018-04-27T07:59:25.164Z,101251.24
2018-04-27T08:01:52.669Z,101246.59
2018-04-27T08:04:20.198Z,101248.44
2018-04-27T08:06:48.697Z,101245.58
2018-04-27T08:09:16.253Z,101242.48
2018-04-27T08:11:43.813Z,101244.40
2018-04-27T08:14:11.396Z,101243.27
2018-04-27T08:16:38.901Z,101242.70
2018-04-27T08:19:06.439Z,101235.91
2018-04-27T08:21:34.073Z,101237.61
2018-04-27T08:24:01.706Z,101245.58
2018-04-27T08:26:29.261Z,101241.20
2018-04-27T08:28:59.783Z,101246.79
2018-04-27T08:31:27.341Z,101246.72
2018-04-27T08:33:54.959Z,101244.19
2018-04-27T08:36:22.541Z,101243.59
2018-04-27T08:38:50.177Z,101241.21
2018-04-27T08:41:17.756Z,101234.02
2018-04-27T08:43:45.352Z,101240.45
2018-04-27T08:46:12.957Z,101227.11
2018-04-27T08:48:40.483Z,101233.13
2018-04-27T08:51:08.095Z,101236.78
2018-04-27T08:53:35.727Z,101235.69
2018-04-27T08:56:03.342Z,101226.18
2018-04-27T08:58:30.988Z,101226.86
2018-04-27T09:00:58.567Z,101218.22
2018-04-27T09:03:26.115Z,101222.12
2018-04-27T09:05:54.165Z,101221.71
2018-04-27T09:08:22.118Z,101223.18
2018-04-27T09:10:49.666Z,101214.80
2018-04-27T09:13:17.203Z,101215.20
2018-04-27T09:15:44.724Z,101217.94
2018-04-27T09:18:12.290Z,101212.17
2018-04-27T09:20:39.839Z,101204.64
2018-04-27T09:23:07.366Z,101203.27
2018-04-27T09:25:34.922Z,101201.74
2018-04-27T09:28:02.466Z,101201.88
2018-04-27T09:30:29.994Z,101197.09
2018-04-27T09:32:57.539Z,101200.36
2018-04-27T09:35:25.491Z,101187.91
2018-04-27T09:37:53.001Z,101193.22
2018-04-27T09:40:20.551Z,101190.68
2018-04-27T09:42:48.155Z,101195.77
2018-04-27T09:45:15.744Z,101205.77
2018-04-27T09:47:43.287Z,101191.37
2018-04-27T09:50:10.864Z,101196.16
2018-04-27T09:52:38.473Z,101192.97
2018-04-27T09:55:06.259Z,101183.52
2018-04-27T09:57:33.850Z,101188.69
2018-04-27T10:00:01.692Z,101187.20
2018-04-27T10:02:29.226Z,101189.77
2018-04-27T10:04:56.957Z,101184.59
2018-04-27T10:07:24.504Z,101184.47
2018-04-27T10:09:52.167Z,101173.99
2018-04-27T10:12:19.758Z,101170.44
2018-04-27T10:14:47.332Z,101165.73
2018-04-27T10:17:14.918Z,101155.91
2018-04-27T10:19:42.508Z,101155.69
2018-04-27T10:22:10.135Z,101151.00
2018-04-27T10:24:37.728Z,101148.59
2018-04-27T10:27:05.341Z,101151.84
2018-04-27T10:29:32.879Z,101142.09
2018-04-27T10:32:00.916Z,101142.19
2018-04-27T10:34:28.957Z,101141.19
2018-04-27T10:36:56.522Z,101134.99
2018-04-27T10:39:24.279Z,101131.38
2018-04-27T10:41:51.910Z,101124.87
2018-04-27T10:44:19.573Z,101120.70
2018-04-27T10:46:48.796Z,101117.95
2018-04-27T10:49:16.331Z,101119.89
2018-04-27T10:51:43.874Z,101113.96
2018-04-27T10:54:11.417Z,101104.27
2018-04-27T10:56:38.979Z,101104.11
2018-04-27T10:59:06.521Z,101101.53
2018-04-27T11:01:34.058Z,101089.92
2018-04-27T11:04:01.619Z,101087.94
2018-04-27T11:06:29.149Z,101088.39
2018-04-27T11:08:56.673Z,101083.52
2018-04-27T11:11:24.242Z,101084.40
2018-04-27T11:13:51.816Z,101080.30
2018-04-27T11:16:19.400Z,101071.43
2018-04-27T11:18:46.984Z,101064.40
2018-04-27T11:21:14.503Z,101060.07
2018-04-27T11:23:42.433Z,101059.39
2018-04-27T11:26:09.999Z,101057.98
2018-04-27T11:28:37.583Z,101049.69
2018-04-27T11:31:05.081Z,101056.72
2018-04-27T11:33:32.677Z,101052.82
2018-04-27T11:36:00.206Z,101044.43
2018-04-27T11:38:27.730Z,101043.66
2018-04-27T11:40:55.293Z,101037.22
2018-04-27T11:43:22.815Z,101034.24
2018-04-27T11:45:50.345Z,101024.91
2018-04-27T11:48:17.917Z,101030.19
2018-04-27T11:50:45.683Z,101032.05
2018-04-27T11:53:13.208Z,101032.09
2018-04-27T11:55:40.795Z,101023.95
2018-04-27T11:58:08.347Z,101022.07
2018-04-27T12:00:35.878Z,101017.09
2018-04-27T12:03:03.710Z,101022.73
2018-04-27T12:05:31.269Z,101006.09
2018-04-27T12:08:00.019Z,101012.81
2018-04-27T12:10:27.615Z,101017.73
2018-04-27T12:12:55.177Z,101015.55
2018-04-27T12:15:22.765Z,101013.55
2018-04-27T12:17:50.751Z,101006.77
2018-04-27T12:20:18.290Z,101006.19
2018-04-27T12:22:47.100Z,101006.77
2018-04-27T12:25:14.705Z,101005.65
2018-04-27T12:27:44.044Z,100999.52
2018-04-27T12:30:11.640Z,101003.91
2018-04-27T12:32:39.558Z,100989.66
2018-04-27T12:35:08.088Z,100981.48
2018-04-27T12:37:35.912Z,100992.75
2018-04-27T12:40:03.459Z,100988.11
2018-04-27T12:42:31.620Z,100989.66
2018-04-27T12:44:59.444Z,100977.65
2018-04-27T12:47:26.953Z,100974.80
2018-04-27T12:49:54.749Z,100973.88
2018-04-27T12:52:22.611Z,100979.98
2018-04-27T12:54:50.211Z,100970.54
2018-04-27T12:57:17.738Z,100974.34
2018-04-27T12:59:46.633Z,100982.95
2018-04-27T13:02:15.566Z,100982.87
2018-04-27T13:04:43.124Z,100968.84
2018-04-27T13:07:13.222Z,100967.45
2018-04-27T13:09:40.751Z,100966.41
2018-04-27T13:12:09.700Z,100965.41
2018-04-27T13:14:37.256Z,100961.42
2018-04-27T13:17:06.055Z,100960.88
2018-04-27T13:19:33.574Z,100968.47
2018-04-27T13:22:01.121Z,100957.83
2018-04-27T13:24:28.729Z,100952.45
2018-04-27T13:26:56.657Z,100944.35
2018-04-27T13:29:24.204Z,100946.94
2018-04-27T13:31:51.736Z,100957.97
2018-04-27T13:34:19.306Z,100955.25
2018-04-27T13:36:46.837Z,100952.97
2018-04-27T13:39:15.688Z,100938.80
2018-04-27T13:41:43.983Z,100937.84
2018-04-27T13:44:11.528Z,100933.75
2018-04-27T13:46:39.099Z,100937.64
2018-04-27T13:49:07.849Z,100944.51
2018-04-27T13:51:35.501Z,100938.76
2018-04-27T13:54:03.576Z,100939.10
2018-04-27T13:56:31.451Z,100930.12
2018-04-27T13:59:02.174Z,100922.56
2018-04-27T14:01:30.243Z,100922.84
2018-04-27T14:03:57.864Z,100913.44
2018-04-27T14:06:25.386Z,100911.92
2018-04-27T14:08:55.867Z,100908.47
2018-04-27T14:11:23.405Z,100911.97
2018-04-27T14:13:50.928Z,100911.56
2018-04-27T14:16:18.969Z,100912.17
2018-04-27T14:18:48.595Z,100911.77
2018-04-27T14:21:16.136Z,100901.66
2018-04-27T14:23:43.694Z,100902.66
2018-04-27T14:26:11.224Z,100901.19
2018-04-27T14:28:38.754Z,100897.75
2018-04-27T14:31:06.660Z,100889.74
2018-04-27T14:33:35.756Z,100882.58
2018-04-27T14:36:03.608Z,100879.16
2018-04-27T14:38:31.179Z,100881.73
2018-04-27T14:40:58.772Z,100877.31
2018-04-27T14:43:26.238Z,100878.54
2018-04-27T14:45:53.795Z,100882.97
2018-04-27T14:48:21.390Z,100875.83
2018-04-27T14:50:48.899Z,100864.09
2018-04-27T14:53:16.457Z,100853.81
2018-04-27T14:55:44.009Z,100859.88
2018-04-27T14:58:11.526Z,100853.88
2018-04-27T15:00:39.323Z,100858.52
2018-04-27T15:03:06.870Z,100862.05
2018-04-27T15:05:34.432Z,100864.59
2018-04-27T15:08:01.982Z,100868.23
2018-04-27T15:10:29.552Z,100860.27
2018-04-27T15:12:57.327Z,100859.69
2018-04-27T15:15:24.984Z,100858.95
2018-04-27T15:17:52.528Z,100863.42
2018-04-27T15:20:20.034Z,100858.62
2018-04-27T15:22:47.587Z,100850.95
2018-04-27T15:25:15.208Z,100849.97
2018-04-27T15:27:43.046Z,100845.97
2018-04-27T15:30:10.590Z,100846.73
2018-04-27T15:32:38.124Z,100840.75
2018-04-27T15:35:05.667Z,100847.50
2018-04-27T15:37:33.221Z,100842.12
2018-04-27T15:40:01.914Z,100840.97
2018-04-27T15:42:29.501Z,100838.32
2018-04-27T15:44:57.099Z,100837.63
2018-04-27T15:47:24.650Z,100828.86
2018-04-27T15:49:52.280Z,100816.27
2018-04-27T15:52:20.139Z,100813.88
2018-04-27T15:54:47.649Z,100808.34
2018-04-27T15:57:15.215Z,100815.78
2018-04-27T15:59:43.127Z,100813.70
2018-04-27T16:02:11.763Z,100805.31
2018-04-27T16:04:39.316Z,100799.16
2018-04-27T16:07:06.899Z,100802.56
2018-04-27T16:09:35.284Z,100805.48
2018-04-27T16:12:02.766Z,100794.42
2018-04-27T16:14:30.643Z,100796.48
2018-04-27T16:16:58.169Z,100791.52
2018-04-27T16:19:25.691Z,100785.49
2018-04-27T16:21:53.282Z,100776.52
2018-04-27T16:24:21.778Z,100777.69
2018-04-27T16:26:50.249Z,100766.55
2018-04-27T16:29:20.817Z,100766.44
2018-04-27T16:31:50.049Z,100759.56
2018-04-27T16:34:17.578Z,100755.34
2018-04-27T16:36:45.121Z,100763.69
2018-04-27T16:39:12.667Z,100760.41
2018-04-27T16:41:40.180Z,100759.06
2018-04-27T16:44:07.776Z,100759.52
2018-04-27T16:46:35.352Z,100761.45
2018-04-27T16:49:04.477Z,100759.41
2018-04-27T16:51:32.710Z,100759.15
2018-04-27T16:54:00.517Z,100760.36
2018-04-27T16:56:28.045Z,100747.70
2018-04-27T16:58:55.607Z,100750.70
2018-04-27T17:01:24.000Z,100754.45
2018-04-27T17:03:51.734Z,100753.20
2018-04-27T17:06:19.335Z,100749.67
2018-04-27T17:08:49.238Z,100755.00
2018-04-27T17:11:16.748Z,100757.14
2018-04-27T17:13:44.328Z,100760.45
2018-04-27T17:16:11.884Z,100758.95
2018-04-27T17:18:39.452Z,100760.82
2018-04-27T17:21:08.613Z,100754.50
2018-04-27T17:23:37.655Z,100748.27
2018-04-27T17:26:05.391Z,100742.80
2018-04-27T17:28:32.989Z,100739.00
2018-04-27T17:31:00.536Z,100742.80
2018-04-27T17:33:28.298Z,100743.00
2018-04-27T17:35:55.845Z,100740.32
2018-04-27T17:38:23.554Z,100739.28
2018-04-27T17:40:51.082Z,100735.53
2018-04-27T17:43:20.919Z,100731.08
2018-04-27T17:45:48.524Z,100727.56
2018-04-27T17:48:16.207Z,100732.37
2018-04-27T17:50:43.849Z,100728.79
2018-04-27T17:53:11.494Z,100729.76
2018-04-27T17:55:39.107Z,100729.45
2018-04-27T17:58:06.592Z,100733.18
2018-04-27T18:00:35.566Z,100729.80
2018-04-27T18:03:03.137Z,100723.17
2018-04-27T18:05:30.686Z,100717.83
2018-04-27T18:08:02.220Z,100723.55
2018-04-27T18:10:29.784Z,100725.13
2018-04-27T18:12:57.365Z,100726.58
2018-04-27T18:15:24.883Z,100721.64
2018-04-27T18:17:55.139Z,100721.75
2018-04-27T18:20:22.756Z,100724.98
2018-04-27T18:22:50.357Z,100726.02
2018-04-27T18:25:17.951Z,100733.67
2018-04-27T18:27:45.778Z,100733.08
2018-04-27T18:30:13.288Z,100729.63
2018-04-27T18:32:41.233Z,100722.31
2018-04-27T18:35:08.770Z,100719.00
2018-04-27T18:37:36.344Z,100718.83
2018-04-27T18:40:03.874Z,100719.34
2018-04-27T18:42:31.538Z,100718.44
2018-04-27T18:44:59.213Z,100722.67
2018-04-27T18:47:26.870Z,100729.88
2018-04-27T18:49:54.426Z,100724.41
2018-04-27T18:52:37.458Z,100729.90
2018-04-27T18:55:04.991Z,100732.27
2018-04-27T18:57:32.521Z,100731.87
2018-04-27T19:00:00.050Z,100732.36
2018-04-27T19:02:32.587Z,100733.22
2018-04-27T19:05:00.579Z,100731.86
2018-04-27T19:07:28.334Z,100741.89
2018-04-27T19:09:59.233Z,100734.16
2018-04-27T19:12:30.212Z,100729.70
2018-04-27T19:14:57.783Z,100739.73
2018-04-27T19:17:25.393Z,100736.86
2018-04-27T19:19:53.027Z,100732.94
2018-04-27T19:22:20.797Z,100733.13
2018-04-27T19:24:48.315Z,100728.67
2018-04-27T19:27:15.918Z,100728.59
2018-04-27T19:29:43.447Z,100730.97
2018-04-27T19:32:10.954Z,100716.59
2018-04-27T19:34:38.539Z,100726.33
2018-04-27T19:37:06.076Z,100727.16
2018-04-27T19:39:33.586Z,100729.31
2018-04-27T19:42:01.144Z,100728.30
2018-04-27T19:44:28.704Z,100723.95
2018-04-27T19:46:56.218Z,100726.62
2018-04-27T19:49:24.214Z,100723.86
2018-04-27T19:51:51.770Z,100722.40
2018-04-27T19:54:19.293Z,100718.06
2018-04-27T19:56:46.818Z,100710.83
2018-04-27T19:59:14.352Z,100707.31
2018-04-27T20:01:41.869Z,100711.14
2018-04-27T20:04:09.488Z,100703.81
2018-04-27T20:06:37.093Z,100705.77
2018-04-27T20:09:04.702Z,100705.57
2018-04-27T20:11:32.296Z,100704.31
2018-04-27T20:13:59.857Z,100698.64
2018-04-27T20:16:37.147Z,100708.75
2018-04-27T20:19:07.459Z,100703.19
2018-04-27T20:21:35.251Z,100703.08
2018-04-27T20:24:06.553Z,100699.86
2018-04-27T20:26:34.251Z,100697.08
2018-04-27T20:29:02.591Z,100697.09
2018-04-27T20:31:30.507Z,100694.60
2018-04-27T20:33:58.075Z,100698.22
2018-04-27T20:36:25.609Z,100692.42
2018-04-27T20:38:53.226Z,100688.39
2018-04-27T20:41:20.730Z,100682.50
2018-04-27T20:43:48.242Z,100680.13
2018-04-27T20:46:18.564Z,100680.63
2018-04-27T20:48:46.149Z,100672.78
2018-04-27T20:51:13.716Z,100670.50
2018-04-27T20:53:42.812Z,100672.96
2018-04-27T20:56:10.371Z,100667.37
2018-04-27T20:58:37.901Z,100672.14
2018-04-27T21:01:05.431Z,100670.16
2018-04-27T21:03:32.985Z,100666.12
2018-04-27T21:06:00.516Z,100667.16
2018-04-27T21:08:28.054Z,100660.75
2018-04-27T21:10:55.647Z,100661.46
2018-04-27T21:13:23.149Z,100664.05
2018-04-27T21:15:50.699Z,100663.31
2018-04-27T21:18:18.210Z,100650.30
2018-04-27T21:20:45.716Z,100652.78
2018-04-27T21:23:13.255Z,100651.23
2018-04-27T21:25:40.781Z,100647.73
2018-04-27T21:28:21.725Z,100642.57
2018-04-27T21:30:49.220Z,100637.59
2018-04-27T21:33:16.789Z,100641.30
2018-04-27T21:35:53.849Z,100634.41
2018-04-27T21:38:42.925Z,100631.62
2018-04-27T21:41:17.882Z,100623.76
2018-04-27T21:43:45.721Z,100622.74
2018-04-27T21:46:13.228Z,100623.16
2018-04-27T21:48:40.809Z,100622.50
2018-04-27T21:51:08.371Z,100621.34
2018-04-27T21:53:35.924Z,100617.04
2018-04-27T21:56:03.458Z,100618.17
2018-04-27T21:58:30.953Z,100610.33
2018-04-27T22:00:58.535Z,100605.77
2018-04-27T22:03:26.085Z,100606.27
2018-04-27T22:05:57.279Z,100610.51
2018-04-27T22:08:41.357Z,100615.23
2018-04-27T22:11:11.872Z,100615.03
2018-04-27T22:13:39.393Z,100624.22
2018-04-27T22:16:13.141Z,100613.27
2018-04-27T22:18:40.694Z,100611.11
2018-04-27T22:21:08.515Z,100612.61
2018-04-27T22:23:36.823Z,100606.64
2018-04-27T22:26:05.301Z,100609.43
2018-04-27T22:28:38.684Z,100608.16
2018-04-27T22:31:06.202Z,100598.48
2018-04-27T22:33:40.639Z,100600.53
2018-04-27T22:36:15.798Z,100598.15
2018-04-27T22:38:43.323Z,100599.69
2018-04-27T22:41:12.572Z,100597.39
2018-04-27T22:43:40.168Z,100592.45
2018-04-27T22:46:27.445Z,100587.81
2018-04-27T22:48:59.242Z,100585.87
2018-04-27T22:51:44.363Z,100584.38
2018-04-27T22:57:19.692Z,100568.11
2018-04-27T22:59:49.846Z,100560.08
2018-04-27T23:02:21.029Z,100561.07
2018-04-27T23:05:00.397Z,100557.69
2018-04-27T23:07:35.877Z,100557.97
2018-04-27T23:10:03.395Z,100559.61
2018-04-27T23:12:36.426Z,100550.03
2018-04-27T23:15:04.866Z,100555.08
2018-04-27T23:17:32.788Z,100552.25
2018-04-27T23:20:03.174Z,100545.43
2018-04-27T23:22:40.763Z,100548.17
2018-04-27T23:28:03.427Z,100536.34
2018-04-27T23:30:32.828Z,100538.07
2018-04-27T23:33:00.366Z,100528.34
2018-04-27T23:35:27.893Z,100528.95
2018-04-27T23:37:55.903Z,100519.30
2018-04-27T23:40:23.438Z,100523.28
2018-04-27T23:42:51.059Z,100519.14
2018-04-27T23:45:18.629Z,100517.00
2018-04-27T23:47:46.135Z,100512.03
2018-04-27T23:50:14.743Z,100509.26
2018-04-27T23:52:42.296Z,100507.89
2018-04-27T23:55:09.815Z,100502.95
2018-04-27T23:57:37.311Z,100505.37
